Time;durP1;ratioP1;P1;durP2;ratioP2;P2;SDS_P1;SDS_P2;PMS_P1;PMS_P2;Temp;Humidity;BMP_temperature;BMP_pressure;BME280_temperature;BME280_humidity;BME280_pressure;Samples;Min_cycle;Max_cycle;Signal;HPM_P1;HPM_P2
2022/09/16 00:01:43;;;;;;;;;;;11.40;99.90;;;;;;5123859;27;19926;-67
2022/09/16 00:04:08;;;;;;;;;;;11.50;99.90;;;;;;5120850;27;19937;-67
2022/09/16 00:06:34;;;;;;;;;;;11.50;99.90;;;;;;5110457;27;19911;-67
2022/09/16 00:09:00;;;;;;;;;;;11.50;99.90;;;;;;5105409;27;19927;-67
2022/09/16 00:11:25;;;;;;;;;;;11.60;99.90;;;;;;5120453;27;20081;-67
2022/09/16 00:13:51;;;;;;;;;;;11.50;99.90;;;;;;5123887;27;19937;-67
2022/09/16 00:16:18;;;;;;;;;;;11.50;99.90;;;;;;5117967;27;20362;-67
2022/09/16 00:18:44;;;;;;;;;;;11.60;99.90;;;;;;5123345;27;19958;-67
2022/09/16 00:21:10;;;;;;;;;;;11.60;99.90;;;;;;5121240;27;19955;-67
2022/09/16 00:23:36;;;;;;;;;;;11.60;99.90;;;;;;5117102;27;19916;-67
2022/09/16 00:26:01;;;;;;;;;;;11.80;99.90;;;;;;5119252;27;20418;-67
2022/09/16 00:28:27;;;;;;;;;;;11.80;99.90;;;;;;5101842;27;19934;-67
2022/09/16 00:30:52;;;;;;;;;;;11.80;99.90;;;;;;5118466;27;19940;-67
2022/09/16 00:33:18;;;;;;;;;;;11.90;99.90;;;;;;5120032;27;19984;-67
2022/09/16 00:35:44;;;;;;;;;;;11.90;99.90;;;;;;5123705;27;19922;-67
2022/09/16 00:38:09;;;;;;;;;;;11.90;99.90;;;;;;5108269;27;19916;-67
2022/09/16 00:40:42;;;;;;;;;;;11.90;99.90;;;;;;5112795;27;20034;-67
2022/09/16 00:43:09;;;;;;;;;;;11.90;99.90;;;;;;5121981;27;19943;-67
2022/09/16 00:45:35;;;;;;;;;;;11.90;99.90;;;;;;5123332;27;19994;-67
2022/09/16 00:48:01;;;;;;;;;;;11.90;99.90;;;;;;5122568;27;19975;-67
2022/09/16 00:50:37;;;;;;;;;;;11.90;99.90;;;;;;5121018;27;19915;-67
2022/09/16 00:53:03;;;;;;;;;;;11.90;99.90;;;;;;5120726;27;19931;-67
2022/09/16 00:55:31;;;;;;;;;;;11.80;99.90;;;;;;5120263;27;20274;-67
2022/09/16 00:58:01;;;;;;;;;;;11.70;99.90;;;;;;5121699;27;19915;-67
2022/09/16 01:00:27;;;;;;;;;;;11.70;99.90;;;;;;5122239;27;20014;-67
2022/09/16 01:02:52;;;;;;;;;;;11.70;99.90;;;;;;5119976;27;19912;-67
2022/09/16 01:05:20;;;;;;;;;;;11.60;99.90;;;;;;5119000;27;19950;-67
2022/09/16 01:07:48;;;;;;;;;;;11.60;99.90;;;;;;5119055;27;19926;-66
2022/09/16 01:10:15;;;;;;;;;;;11.60;99.90;;;;;;5117042;27;20006;-67
2022/09/16 01:12:45;;;;;;;;;;;11.50;99.90;;;;;;5121234;27;19915;-67
2022/09/16 01:15:11;;;;;;;;;;;11.40;99.90;;;;;;5118837;27;20406;-67
2022/09/16 01:17:59;;;;;;;;;;;11.40;99.90;;;;;;5113587;27;19915;-67
2022/09/16 01:20:48;;;;;;;;;;;11.30;99.90;;;;;;5120324;27;19915;-67
2022/09/16 01:23:33;;;;;;;;;;;11.30;99.90;;;;;;5079300;27;19920;-67
2022/09/16 01:26:22;;;;;;;;;;;11.30;99.90;;;;;;5107313;27;20306;-67
2022/09/16 01:28:48;;;;;;;;;;;11.30;99.90;;;;;;5071015;27;20208;-67
2022/09/16 01:31:15;;;;;;;;;;;11.30;99.90;;;;;;5120873;27;20571;-67
2022/09/16 01:33:58;;;;;;;;;;;11.30;99.90;;;;;;5114888;27;20209;-67
2022/09/16 01:36:36;;;;;;;;;;;11.30;99.90;;;;;;5116321;27;19919;-67
2022/09/16 01:39:16;;;;;;;;;;;11.30;99.90;;;;;;5117786;27;19916;-67
2022/09/16 01:41:50;;;;;;;;;;;11.30;99.90;;;;;;5119051;27;20320;-67
2022/09/16 01:44:27;;;;;;;;;;;11.30;99.90;;;;;;5120095;27;19915;-67
2022/09/16 01:46:55;;;;;;;;;;;11.40;99.90;;;;;;5120522;27;20234;-67
2022/09/16 01:49:21;;;;;;;;;;;11.30;99.90;;;;;;5108675;27;21595;-67
2022/09/16 01:51:55;;;;;;;;;;;11.40;99.90;;;;;;5119061;27;19917;-67
2022/09/16 01:54:38;;;;;;;;;;;11.40;99.90;;;;;;5116555;27;20305;-67
2022/09/16 01:57:07;;;;;;;;;;;11.40;99.90;;;;;;5105322;27;20327;-67
2022/09/16 01:59:49;;;;;;;;;;;11.40;99.90;;;;;;5112446;27;19915;-66
2022/09/16 02:02:34;;;;;;;;;;;11.50;99.90;;;;;;5114704;27;19915;-67
2022/09/16 02:05:02;;;;;;;;;;;11.50;99.90;;;;;;5119796;27;20472;-67
2022/09/16 02:07:30;;;;;;;;;;;11.50;99.90;;;;;;5118243;27;19915;-67
2022/09/16 02:09:57;;;;;;;;;;;11.50;99.90;;;;;;5118266;27;19916;-67
2022/09/16 02:12:28;;;;;;;;;;;11.50;99.90;;;;;;5118058;27;19959;-67
2022/09/16 02:14:56;;;;;;;;;;;11.50;99.90;;;;;;5114955;27;19953;-67
2022/09/16 02:17:23;;;;;;;;;;;11.50;99.90;;;;;;5120121;27;20423;-67
2022/09/16 02:19:51;;;;;;;;;;;11.50;99.90;;;;;;5118034;27;19916;-67
2022/09/16 02:22:22;;;;;;;;;;;11.60;99.90;;;;;;5120480;27;20406;-67
2022/09/16 02:24:48;;;;;;;;;;;11.60;99.90;;;;;;5110832;27;19950;-67
2022/09/16 02:27:16;;;;;;;;;;;11.60;99.90;;;;;;5088867;27;20180;-67
2022/09/16 02:29:44;;;;;;;;;;;11.60;99.90;;;;;;5116809;27;19923;-67
2022/09/16 02:32:11;;;;;;;;;;;11.60;99.90;;;;;;5120886;27;20004;-67
2022/09/16 02:34:39;;;;;;;;;;;11.60;99.90;;;;;;5116558;27;20594;-67
2022/09/16 02:37:09;;;;;;;;;;;11.60;99.90;;;;;;5115525;27;19916;-67
2022/09/16 02:39:38;;;;;;;;;;;11.60;99.90;;;;;;5104886;27;20042;-67
2022/09/16 02:42:04;;;;;;;;;;;11.60;99.90;;;;;;5117607;27;19919;-67
2022/09/16 02:44:29;;;;;;;;;;;11.60;99.90;;;;;;5116736;27;19919;-67
2022/09/16 02:47:10;;;;;;;;;;;11.60;99.90;;;;;;5119475;27;19915;-67
2022/09/16 02:49:47;;;;;;;;;;;11.50;99.90;;;;;;5113566;28;19919;-67
2022/09/16 02:52:31;;;;;;;;;;;11.50;99.90;;;;;;5118166;27;20278;-67
2022/09/16 02:54:59;;;;;;;;;;;11.50;99.90;;;;;;5108239;28;19915;-66
2022/09/16 02:57:26;;;;;;;;;;;11.50;99.90;;;;;;5114834;28;19923;-67
2022/09/16 02:59:52;;;;;;;;;;;11.50;99.90;;;;;;5117035;28;19916;-67
2022/09/16 03:02:17;;;;;;;;;;;11.40;99.90;;;;;;5109934;28;19922;-67
2022/09/16 03:04:43;;;;;;;;;;;11.40;99.90;;;;;;5121822;27;19915;-67
2022/09/16 03:07:10;;;;;;;;;;;11.40;99.90;;;;;;5119171;28;19926;-67
2022/09/16 03:09:36;;;;;;;;;;;11.40;99.90;;;;;;5116715;28;19981;-67
2022/09/16 03:12:31;;;;;;;;;;;11.50;99.90;;;;;;5114104;27;19915;-67
2022/09/16 03:14:59;;;;;;;;;;;11.50;99.90;;;;;;5023659;28;20184;-67
2022/09/16 03:17:37;;;;;;;;;;;11.50;99.90;;;;;;5118446;28;20295;-67
2022/09/16 03:20:17;;;;;;;;;;;11.50;99.90;;;;;;5117775;27;20002;-67
2022/09/16 03:22:46;;;;;;;;;;;11.50;99.90;;;;;;5120726;28;20378;-67
2022/09/16 03:25:31;;;;;;;;;;;11.40;99.90;;;;;;5112156;28;20044;-67
2022/09/16 03:28:00;;;;;;;;;;;11.40;99.90;;;;;;5117978;28;19931;-67
2022/09/16 03:30:25;;;;;;;;;;;11.40;99.90;;;;;;5116265;28;19998;-67
2022/09/16 03:32:53;;;;;;;;;;;11.40;99.90;;;;;;5118968;28;20014;-67
2022/09/16 03:35:26;;;;;;;;;;;11.40;99.90;;;;;;5120030;28;19923;-67
2022/09/16 03:37:53;;;;;;;;;;;11.40;99.90;;;;;;5116304;27;20362;-67
2022/09/16 03:40:19;;;;;;;;;;;11.40;99.90;;;;;;5098581;28;19968;-67
2022/09/16 03:42:44;;;;;;;;;;;11.40;99.90;;;;;;5120316;28;19923;-67
2022/09/16 03:45:15;;;;;;;;;;;11.30;99.90;;;;;;5117386;28;19945;-67
2022/09/16 03:47:41;;;;;;;;;;;11.30;99.90;;;;;;5118834;28;20366;-67
2022/09/16 03:50:06;;;;;;;;;;;11.20;99.90;;;;;;5110930;28;19923;-67
2022/09/16 03:52:32;;;;;;;;;;;11.20;99.90;;;;;;5102040;28;20304;-67
2022/09/16 03:54:57;;;;;;;;;;;11.20;99.90;;;;;;5118387;27;19919;-67
2022/09/16 03:57:23;;;;;;;;;;;11.10;99.90;;;;;;5118187;28;20377;-67
2022/09/16 03:59:48;;;;;;;;;;;11.00;99.90;;;;;;5119468;28;19919;-67
2022/09/16 04:02:14;;;;;;;;;;;11.00;99.90;;;;;;5113296;28;20439;-67
2022/09/16 04:04:39;;;;;;;;;;;11.00;99.90;;;;;;5121040;27;19943;-67
2022/09/16 04:07:05;;;;;;;;;;;10.90;99.90;;;;;;5123233;27;20247;-67
2022/09/16 04:09:30;;;;;;;;;;;10.80;99.90;;;;;;5119987;27;20382;-67
2022/09/16 04:11:56;;;;;;;;;;;10.80;99.90;;;;;;5130456;27;19944;-67
2022/09/16 04:14:21;;;;;;;;;;;10.70;99.90;;;;;;5114797;27;19916;-67
2022/09/16 04:16:47;;;;;;;;;;;10.60;99.90;;;;;;5116283;27;20010;-67
2022/09/16 04:19:12;;;;;;;;;;;10.60;99.90;;;;;;5117890;27;20274;-67
2022/09/16 04:21:39;;;;;;;;;;;10.50;99.90;;;;;;5122282;27;20010;-67
2022/09/16 04:24:04;;;;;;;;;;;10.40;99.90;;;;;;5120981;27;20006;-67
2022/09/16 04:26:30;;;;;;;;;;;10.40;99.90;;;;;;5111781;27;19919;-67
2022/09/16 04:28:55;;;;;;;;;;;10.30;99.90;;;;;;5121677;27;19928;-67
2022/09/16 04:31:21;;;;;;;;;;;10.20;99.90;;;;;;5118189;27;19915;-67
2022/09/16 04:33:47;;;;;;;;;;;10.10;99.90;;;;;;5120022;27;20398;-67
2022/09/16 04:36:13;;;;;;;;;;;10.00;99.90;;;;;;5120029;27;19994;-67
2022/09/16 04:38:39;;;;;;;;;;;9.80;99.90;;;;;;5115912;27;19915;-67
2022/09/16 04:41:08;;;;;;;;;;;9.70;99.90;;;;;;5120381;27;20407;-66
2022/09/16 04:43:34;;;;;;;;;;;9.50;99.90;;;;;;5123192;27;20293;-67
2022/09/16 04:45:59;;;;;;;;;;;9.40;99.90;;;;;;5120819;27;20136;-67
2022/09/16 04:48:25;;;;;;;;;;;9.40;99.90;;;;;;5123136;27;19931;-67
2022/09/16 04:50:51;;;;;;;;;;;9.30;99.90;;;;;;5120824;27;19911;-67
2022/09/16 04:53:18;;;;;;;;;;;9.20;99.90;;;;;;5121225;27;20059;-67
2022/09/16 04:55:44;;;;;;;;;;;9.20;99.90;;;;;;5119529;27;19954;-66
2022/09/16 04:58:09;;;;;;;;;;;9.10;99.90;;;;;;5122404;27;19955;-66
2022/09/16 05:00:35;;;;;;;;;;;9.10;99.90;;;;;;5120778;27;19912;-66
2022/09/16 05:03:00;;;;;;;;;;;9.10;99.90;;;;;;5110342;27;20325;-67
2022/09/16 05:05:26;;;;;;;;;;;9.10;99.90;;;;;;5102807;27;19955;-67
2022/09/16 05:07:51;;;;;;;;;;;9.10;99.90;;;;;;5119036;27;20294;-67
2022/09/16 05:10:17;;;;;;;;;;;9.10;99.90;;;;;;5098171;27;20309;-67
2022/09/16 05:12:42;;;;;;;;;;;9.10;99.90;;;;;;5120436;27;19915;-67
2022/09/16 05:15:08;;;;;;;;;;;9.20;99.90;;;;;;5114949;27;19990;-67
2022/09/16 05:17:33;;;;;;;;;;;9.20;99.90;;;;;;5119054;27;20038;-67
2022/09/16 05:19:59;;;;;;;;;;;9.20;99.90;;;;;;5124921;27;20382;-67
2022/09/16 05:22:24;;;;;;;;;;;9.30;99.90;;;;;;5117725;27;19911;-67
2022/09/16 05:24:50;;;;;;;;;;;9.40;99.90;;;;;;5102362;27;19919;-67
2022/09/16 05:27:16;;;;;;;;;;;9.50;99.90;;;;;;5118189;27;19932;-67
2022/09/16 05:29:41;;;;;;;;;;;9.60;99.90;;;;;;5120508;27;20021;-67
2022/09/16 05:32:07;;;;;;;;;;;9.70;99.90;;;;;;5117306;27;20059;-67
2022/09/16 05:34:34;;;;;;;;;;;9.80;99.90;;;;;;5116927;27;19915;-67
2022/09/16 05:37:00;;;;;;;;;;;9.90;99.90;;;;;;5131498;27;19960;-67
2022/09/16 05:39:26;;;;;;;;;;;9.90;99.90;;;;;;5125803;27;19920;-67
2022/09/16 05:41:53;;;;;;;;;;;10.00;99.90;;;;;;5101216;28;20389;-67
2022/09/16 05:44:18;;;;;;;;;;;10.10;99.90;;;;;;5121708;27;20001;-67
2022/09/16 05:46:44;;;;;;;;;;;10.10;99.90;;;;;;5120590;27;20681;-67
2022/09/16 05:49:10;;;;;;;;;;;10.20;99.90;;;;;;5108065;27;19976;-67
2022/09/16 05:51:36;;;;;;;;;;;10.20;99.90;;;;;;5118501;27;19915;-67
2022/09/16 05:54:02;;;;;;;;;;;10.30;99.90;;;;;;5118077;27;19912;-67
2022/09/16 05:56:29;;;;;;;;;;;10.30;99.90;;;;;;5119603;27;19958;-67
2022/09/16 05:58:56;;;;;;;;;;;10.30;99.90;;;;;;5121809;27;20425;-67
2022/09/16 06:01:40;;;;;;;;;;;10.40;99.90;;;;;;5119708;27;19916;-67
2022/09/16 06:04:06;;;;;;;;;;;10.40;99.90;;;;;;5115130;27;20012;-67
2022/09/16 06:06:36;;;;;;;;;;;10.40;99.90;;;;;;5112400;27;19915;-67
2022/09/16 06:09:10;;;;;;;;;;;10.50;99.90;;;;;;5114123;27;19931;-67
2022/09/16 06:11:38;;;;;;;;;;;10.50;99.90;;;;;;5113223;27;19925;-67
2022/09/16 06:14:04;;;;;;;;;;;10.60;99.90;;;;;;5116822;27;19968;-67
2022/09/16 06:16:31;;;;;;;;;;;10.60;99.90;;;;;;5114791;27;19915;-67
2022/09/16 06:18:58;;;;;;;;;;;10.60;99.90;;;;;;5110086;27;20354;-67
2022/09/16 06:21:23;;;;;;;;;;;10.70;99.90;;;;;;5106166;27;19920;-67
2022/09/16 06:23:49;;;;;;;;;;;10.70;99.90;;;;;;5103838;27;19916;-67
2022/09/16 06:26:18;;;;;;;;;;;10.80;99.90;;;;;;5103867;27;19912;-67
2022/09/16 06:28:45;;;;;;;;;;;10.80;99.90;;;;;;5107470;27;19928;-67
2022/09/16 06:31:15;;;;;;;;;;;10.90;99.90;;;;;;5109292;27;19990;-67
2022/09/16 06:33:40;;;;;;;;;;;10.90;99.90;;;;;;5115154;27;20327;-67
2022/09/16 06:36:11;;;;;;;;;;;11.00;99.90;;;;;;5117086;27;19959;-67
2022/09/16 06:38:37;;;;;;;;;;;11.00;99.90;;;;;;5107573;27;19916;-67
2022/09/16 06:41:03;;;;;;;;;;;11.10;99.90;;;;;;5113330;27;19919;-67
2022/09/16 06:43:29;;;;;;;;;;;11.20;99.90;;;;;;5119238;27;20286;-67
2022/09/16 06:45:56;;;;;;;;;;;11.20;99.90;;;;;;5114117;27;19945;-67
2022/09/16 06:48:21;;;;;;;;;;;11.30;99.90;;;;;;5113134;27;19930;-67
2022/09/16 06:50:47;;;;;;;;;;;11.40;99.90;;;;;;5115748;28;19916;-67
2022/09/16 06:53:12;;;;;;;;;;;11.50;99.90;;;;;;5110779;28;20290;-67
2022/09/16 06:55:38;;;;;;;;;;;11.70;99.90;;;;;;5114395;28;19922;-67
2022/09/16 06:58:03;;;;;;;;;;;11.70;99.90;;;;;;5113464;28;19980;-67
2022/09/16 07:00:29;;;;;;;;;;;11.90;99.90;;;;;;5108273;27;20499;-67
2022/09/16 07:02:54;;;;;;;;;;;12.00;99.90;;;;;;5104435;27;20014;-67
2022/09/16 07:05:20;;;;;;;;;;;12.10;99.90;;;;;;5104230;28;19915;-66
2022/09/16 07:07:45;;;;;;;;;;;12.20;99.90;;;;;;5112000;28;19963;-67
2022/09/16 07:10:11;;;;;;;;;;;12.10;99.90;;;;;;5105227;28;20006;-67
2022/09/16 07:12:36;;;;;;;;;;;12.00;99.90;;;;;;5112634;27;20305;-66
2022/09/16 07:15:02;;;;;;;;;;;11.80;99.90;;;;;;5119949;28;19916;-67
2022/09/16 07:17:28;;;;;;;;;;;11.50;99.90;;;;;;5111120;27;19922;-66
2022/09/16 07:19:54;;;;;;;;;;;11.30;99.90;;;;;;5124295;27;19915;-67
2022/09/16 07:22:19;;;;;;;;;;;11.10;99.90;;;;;;5118742;28;20383;-67
2022/09/16 07:24:45;;;;;;;;;;;11.00;99.90;;;;;;5109895;28;19911;-67
2022/09/16 07:27:11;;;;;;;;;;;10.90;99.90;;;;;;5113358;28;20468;-67
2022/09/16 07:29:36;;;;;;;;;;;10.80;99.90;;;;;;5115119;28;20336;-67
2022/09/16 07:32:02;;;;;;;;;;;10.90;99.90;;;;;;5113867;28;20012;-67
2022/09/16 07:34:27;;;;;;;;;;;10.90;99.90;;;;;;5108723;27;19995;-67
2022/09/16 07:36:53;;;;;;;;;;;11.10;99.90;;;;;;5096092;27;19916;-67
2022/09/16 07:39:20;;;;;;;;;;;11.30;99.90;;;;;;5095625;27;20045;-67
2022/09/16 07:41:47;;;;;;;;;;;11.40;99.90;;;;;;5096556;27;19974;-67
2022/09/16 07:44:14;;;;;;;;;;;11.70;99.90;;;;;;5102574;27;20018;-67
2022/09/16 07:46:40;;;;;;;;;;;12.30;99.90;;;;;;5117912;27;19915;-67
2022/09/16 07:49:06;;;;;;;;;;;13.00;99.90;;;;;;5121003;27;19930;-66
2022/09/16 07:51:32;;;;;;;;;;;14.00;99.90;;;;;;5116042;27;19916;-67
2022/09/16 07:53:59;;;;;;;;;;;14.80;99.90;;;;;;5113672;27;19955;-67
2022/09/16 07:56:27;;;;;;;;;;;16.60;99.90;;;;;;5110836;27;20022;-67
2022/09/16 07:58:53;;;;;;;;;;;19.20;99.90;;;;;;5117867;27;19915;-67
2022/09/16 08:01:19;;;;;;;;;;;19.60;99.90;;;;;;5116488;27;19915;-67
2022/09/16 08:03:45;;;;;;;;;;;19.30;99.90;;;;;;5116290;27;20270;-67
2022/09/16 08:06:14;;;;;;;;;;;19.10;99.90;;;;;;5117323;27;19922;-67
2022/09/16 08:08:40;;;;;;;;;;;19.00;99.90;;;;;;5118929;27;20379;-67
2022/09/16 08:11:06;;;;;;;;;;;18.70;99.90;;;;;;5117283;27;19923;-67
2022/09/16 08:13:32;;;;;;;;;;;18.40;99.90;;;;;;5121718;27;19916;-67
2022/09/16 08:16:02;;;;;;;;;;;18.50;99.90;;;;;;5121713;27;19963;-67
2022/09/16 08:18:28;;;;;;;;;;;18.60;99.90;;;;;;5106511;27;19916;-67
2022/09/16 08:20:54;;;;;;;;;;;18.90;99.90;;;;;;5117453;27;20286;-67
2022/09/16 08:23:19;;;;;;;;;;;19.40;99.90;;;;;;5113765;27;20030;-67
2022/09/16 08:25:45;;;;;;;;;;;22.60;99.70;;;;;;5119300;27;20358;-67
2022/09/16 08:28:15;;;;;;;;;;;25.50;88.50;;;;;;5118563;27;19923;-67
2022/09/16 08:30:40;;;;;;;;;;;24.60;81.80;;;;;;5118236;27;19927;-68
2022/09/16 08:33:06;;;;;;;;;;;24.30;84.10;;;;;;5113133;27;20370;-67
2022/09/16 08:35:32;;;;;;;;;;;24.00;83.90;;;;;;5119873;27;20382;-67
2022/09/16 08:37:57;;;;;;;;;;;22.70;87.00;;;;;;5111251;27;19926;-67
2022/09/16 08:40:23;;;;;;;;;;;22.00;86.40;;;;;;5102313;27;19919;-67
2022/09/16 08:42:55;;;;;;;;;;;21.50;91.80;;;;;;5100167;27;20091;-67
2022/09/16 08:45:28;;;;;;;;;;;21.80;90.90;;;;;;5105439;27;20390;-67
2022/09/16 08:48:07;;;;;;;;;;;22.70;87.60;;;;;;4740208;27;10000329;-68
2022/09/16 08:50:43;;;;;;;;;;;24.80;80.80;;;;;;5108054;27;19924;-68
2022/09/16 08:53:14;;;;;;;;;;;26.80;74.60;;;;;;5114154;27;19915;-68
2022/09/16 08:55:41;;;;;;;;;;;28.40;68.10;;;;;;5114105;27;19912;-68
2022/09/16 08:58:17;;;;;;;;;;;29.40;61.80;;;;;;5114849;27;19916;-68
2022/09/16 09:00:46;;;;;;;;;;;30.30;60.30;;;;;;5120841;27;20130;-68
2022/09/16 09:03:19;;;;;;;;;;;30.40;57.60;;;;;;5121871;27;19923;-69
2022/09/16 09:05:51;;;;;;;;;;;31.30;51.10;;;;;;5123276;27;20343;-68
2022/09/16 09:08:16;;;;;;;;;;;31.40;52.40;;;;;;5110789;27;19923;-68
2022/09/16 09:10:48;;;;;;;;;;;31.70;49.20;;;;;;5104336;27;20363;-67
2022/09/16 09:13:32;;;;;;;;;;;31.20;49.40;;;;;;5109275;27;19915;-67
2022/09/16 09:16:06;;;;;;;;;;;30.20;50.70;;;;;;5104653;27;19973;-67
2022/09/16 09:18:43;;;;;;;;;;;29.90;49.70;;;;;;5115850;27;19915;-67
2022/09/16 09:21:14;;;;;;;;;;;29.30;50.30;;;;;;5115925;27;19969;-68
2022/09/16 09:23:46;;;;;;;;;;;30.30;51.40;;;;;;5115543;27;19962;-68
2022/09/16 09:26:14;;;;;;;;;;;30.20;47.80;;;;;;5118673;27;19911;-68
2022/09/16 09:28:39;;;;;;;;;;;30.30;49.90;;;;;;5111028;27;19930;-68
2022/09/16 09:31:30;;;;;;;;;;;29.70;50.70;;;;;;5117420;27;19915;-68
2022/09/16 09:34:13;;;;;;;;;;;30.20;47.30;;;;;;5112826;27;19915;-68
2022/09/16 09:36:51;;;;;;;;;;;30.00;48.00;;;;;;5118864;27;20414;-68
2022/09/16 09:39:43;;;;;;;;;;;29.60;50.50;;;;;;5114084;27;19915;-67
2022/09/16 09:42:08;;;;;;;;;;;29.00;49.90;;;;;;5051584;27;19953;-68
2022/09/16 09:44:34;;;;;;;;;;;28.20;51.60;;;;;;5118984;27;20028;-67
2022/09/16 09:47:02;;;;;;;;;;;28.50;52.40;;;;;;5111488;27;19960;-67
2022/09/16 09:49:30;;;;;;;;;;;28.90;47.30;;;;;;5112527;27;19967;-66
2022/09/16 09:52:11;;;;;;;;;;;29.30;47.80;;;;;;5117718;27;19941;-67
2022/09/16 09:54:37;;;;;;;;;;;29.20;48.00;;;;;;5101831;27;20247;-67
2022/09/16 09:57:21;;;;;;;;;;;28.50;46.80;;;;;;5112075;27;20018;-67
2022/09/16 09:59:57;;;;;;;;;;;28.80;49.80;;;;;;5115509;27;20465;-67
2022/09/16 10:02:23;;;;;;;;;;;29.30;48.80;;;;;;5087969;28;20416;-67
2022/09/16 10:04:49;;;;;;;;;;;29.40;50.30;;;;;;5116662;27;19911;-67
2022/09/16 10:07:16;;;;;;;;;;;29.40;53.20;;;;;;5118828;27;19920;-65
2022/09/16 10:09:56;;;;;;;;;;;29.60;49.50;;;;;;5117187;27;20401;-66
2022/09/16 10:12:26;;;;;;;;;;;29.50;52.60;;;;;;5120586;27;19930;-65
2022/09/16 10:14:52;;;;;;;;;;;29.90;48.80;;;;;;5112739;27;19940;-65
2022/09/16 10:17:18;;;;;;;;;;;29.60;45.30;;;;;;5119943;27;19916;-65
2022/09/16 10:19:49;;;;;;;;;;;28.70;50.50;;;;;;5117017;27;19923;-64
2022/09/16 10:22:20;;;;;;;;;;;29.10;47.90;;;;;;5119166;27;19919;-65
2022/09/16 10:24:53;;;;;;;;;;;29.30;50.50;;;;;;5111743;27;19939;-65
2022/09/16 10:27:30;;;;;;;;;;;28.40;47.70;;;;;;5104938;27;19945;-65
2022/09/16 10:30:10;;;;;;;;;;;27.40;49.10;;;;;;5115114;27;20407;-65
2022/09/16 10:32:43;;;;;;;;;;;25.00;52.20;;;;;;5117667;27;19950;-65
2022/09/16 10:35:14;;;;;;;;;;;23.10;56.80;;;;;;5119191;27;19915;-64
2022/09/16 10:37:45;;;;;;;;;;;22.90;58.80;;;;;;5110546;27;20065;-64
2022/09/16 10:40:14;;;;;;;;;;;23.50;61.10;;;;;;5116808;27;19915;-64
2022/09/16 10:42:45;;;;;;;;;;;24.80;60.40;;;;;;5117493;27;19916;-64
2022/09/16 10:45:17;;;;;;;;;;;25.70;62.40;;;;;;5117972;27;19915;-64
2022/09/16 10:47:47;;;;;;;;;;;26.80;49.50;;;;;;5109915;27;19926;-64
2022/09/16 10:50:17;;;;;;;;;;;25.60;57.00;;;;;;5109935;27;20081;-65
2022/09/16 10:52:43;;;;;;;;;;;24.50;55.90;;;;;;4755199;28;10000623;-65
2022/09/16 10:55:18;;;;;;;;;;;24.40;60.00;;;;;;5114435;28;20121;-65
2022/09/16 10:57:44;;;;;;;;;;;25.50;59.20;;;;;;5115986;28;19919;-65
2022/09/16 11:00:13;;;;;;;;;;;26.30;49.70;;;;;;5113269;27;20050;-65
2022/09/16 11:02:47;;;;;;;;;;;25.90;54.50;;;;;;5103023;27;19922;-65
2022/09/16 11:05:13;;;;;;;;;;;26.10;55.70;;;;;;5105130;28;20006;-65
2022/09/16 11:07:45;;;;;;;;;;;27.10;56.40;;;;;;5111850;28;20010;-64
2022/09/16 11:10:10;;;;;;;;;;;27.70;54.40;;;;;;5118196;27;20302;-66
2022/09/16 11:12:51;;;;;;;;;;;27.70;51.30;;;;;;5121787;27;19912;-65
2022/09/16 11:15:43;;;;;;;;;;;27.50;53.50;;;;;;5115970;27;19915;-65
2022/09/16 11:18:15;;;;;;;;;;;27.60;54.20;;;;;;5118889;27;20286;-65
2022/09/16 11:21:00;;;;;;;;;;;28.30;51.70;;;;;;5124294;27;20375;-65
2022/09/16 11:23:32;;;;;;;;;;;27.60;51.50;;;;;;5121453;27;19911;-65
2022/09/16 11:26:09;;;;;;;;;;;27.40;51.90;;;;;;5121128;27;19931;-65
2022/09/16 11:28:49;;;;;;;;;;;26.10;51.40;;;;;;5106006;27;20101;-65
2022/09/16 11:31:17;;;;;;;;;;;25.60;55.50;;;;;;5123021;27;19915;-64
2022/09/16 11:33:50;;;;;;;;;;;25.10;51.70;;;;;;5133893;27;20486;-64
2022/09/16 11:36:39;;;;;;;;;;;24.50;57.30;;;;;;5142604;27;19911;-65
2022/09/16 11:39:10;;;;;;;;;;;24.30;58.40;;;;;;5107913;27;19915;-65
2022/09/16 11:41:40;;;;;;;;;;;23.90;58.10;;;;;;5111577;27;19922;-64
2022/09/16 11:44:24;;;;;;;;;;;23.70;55.70;;;;;;5124260;27;19919;-65
2022/09/16 11:47:01;;;;;;;;;;;22.80;57.70;;;;;;5123453;27;19968;-64
2022/09/16 11:49:44;;;;;;;;;;;22.50;61.60;;;;;;5123792;27;19919;-64
2022/09/16 11:52:13;;;;;;;;;;;22.40;62.30;;;;;;5119255;27;20050;-65
2022/09/16 11:54:47;;;;;;;;;;;22.40;60.00;;;;;;5102807;28;20426;-65
2022/09/16 11:57:17;;;;;;;;;;;22.30;67.20;;;;;;5120067;27;19916;-64
2022/09/16 12:00:09;;;;;;;;;;;22.00;59.00;;;;;;5123746;27;20015;-64
2022/09/16 12:02:39;;;;;;;;;;;21.30;62.80;;;;;;5121103;27;19955;-64
2022/09/16 12:05:04;;;;;;;;;;;20.30;61.80;;;;;;5125358;27;19923;-64
2022/09/16 12:07:34;;;;;;;;;;;20.20;69.20;;;;;;5119154;27;19916;-65
2022/09/16 12:10:13;;;;;;;;;;;20.60;76.80;;;;;;5123845;27;20287;-64
2022/09/16 12:12:43;;;;;;;;;;;21.20;77.70;;;;;;5108949;27;20015;-64
2022/09/16 12:15:16;;;;;;;;;;;21.90;63.50;;;;;;5123673;27;20388;-65
2022/09/16 12:17:45;;;;;;;;;;;22.00;65.80;;;;;;5125569;27;19912;-64
2022/09/16 12:20:15;;;;;;;;;;;21.70;61.50;;;;;;5126062;27;19911;-65
2022/09/16 12:22:46;;;;;;;;;;;20.90;62.70;;;;;;5126117;27;19915;-64
2022/09/16 12:25:21;;;;;;;;;;;20.10;66.90;;;;;;5125291;27;20377;-64
2022/09/16 12:28:00;;;;;;;;;;;19.50;74.00;;;;;;5124140;27;20026;-64
2022/09/16 12:30:40;;;;;;;;;;;19.20;78.40;;;;;;5126560;27;19923;-64
2022/09/16 12:33:09;;;;;;;;;;;19.50;89.60;;;;;;5123536;27;19919;-65
2022/09/16 12:35:53;;;;;;;;;;;20.10;88.20;;;;;;5112211;27;19920;-65
2022/09/16 12:38:19;;;;;;;;;;;20.80;81.50;;;;;;5114188;27;19942;-67
2022/09/16 12:40:48;;;;;;;;;;;21.10;71.80;;;;;;5115333;27;19919;-68
2022/09/16 12:43:24;;;;;;;;;;;20.50;63.80;;;;;;5118562;27;20344;-67
2022/09/16 12:46:09;;;;;;;;;;;19.80;71.10;;;;;;5119425;27;19915;-68
2022/09/16 12:48:52;;;;;;;;;;;19.30;74.60;;;;;;5100253;27;19957;-67
2022/09/16 12:51:34;;;;;;;;;;;18.40;75.40;;;;;;5114763;27;19915;-67
2022/09/16 12:54:00;;;;;;;;;;;17.80;81.10;;;;;;5125183;27;19996;-67
2022/09/16 12:56:25;;;;;;;;;;;18.00;86.70;;;;;;5122901;27;19915;-67
2022/09/16 12:59:10;;;;;;;;;;;18.90;95.30;;;;;;5121223;27;20425;-67
2022/09/16 13:01:37;;;;;;;;;;;19.80;72.10;;;;;;5114061;27;19956;-68
2022/09/16 13:04:09;;;;;;;;;;;20.30;73.50;;;;;;5110157;27;19919;-68
2022/09/16 13:06:36;;;;;;;;;;;20.20;69.20;;;;;;5125179;27;19961;-68
2022/09/16 13:09:19;;;;;;;;;;;19.80;68.90;;;;;;5123434;27;20019;-68
2022/09/16 13:11:51;;;;;;;;;;;19.60;69.50;;;;;;5118478;27;20339;-67
2022/09/16 13:14:20;;;;;;;;;;;19.20;70.20;;;;;;5117159;27;20394;-67
2022/09/16 13:16:51;;;;;;;;;;;19.10;77.20;;;;;;5110250;27;19968;-67
2022/09/16 13:19:27;;;;;;;;;;;18.90;72.40;;;;;;5104564;27;20006;-67
2022/09/16 13:22:11;;;;;;;;;;;18.60;80.20;;;;;;5103842;27;20018;-67
2022/09/16 13:24:38;;;;;;;;;;;18.90;80.80;;;;;;5102001;27;19922;-67
2022/09/16 13:27:39;;;;;;;;;;;19.30;82.70;;;;;;5104770;27;19923;-67
2022/09/16 13:30:07;;;;;;;;;;;19.30;70.00;;;;;;5012668;28;19925;-67
2022/09/16 13:32:51;;;;;;;;;;;19.10;67.20;;;;;;5100583;27;20006;-67
2022/09/16 13:35:17;;;;;;;;;;;18.70;71.90;;;;;;5114042;27;19919;-67
2022/09/16 13:37:42;;;;;;;;;;;18.40;72.30;;;;;;5124475;27;19918;-67
2022/09/16 13:40:15;;;;;;;;;;;18.20;76.20;;;;;;5124841;27;19911;-68
2022/09/16 13:42:41;;;;;;;;;;;18.00;76.10;;;;;;5124557;27;19928;-68
2022/09/16 13:45:26;;;;;;;;;;;17.80;79.70;;;;;;5112441;27;19912;-67
2022/09/16 13:47:52;;;;;;;;;;;17.90;79.60;;;;;;5091718;27;19945;-67
2022/09/16 13:50:20;;;;;;;;;;;18.50;72.80;;;;;;5079031;27;20457;-67
2022/09/16 13:52:46;;;;;;;;;;;19.00;74.50;;;;;;5104700;27;19927;-68
2022/09/16 13:55:37;;;;;;;;;;;19.60;75.20;;;;;;5087866;27;19936;-68
2022/09/16 13:58:06;;;;;;;;;;;20.00;67.00;;;;;;5082546;27;19916;-68
2022/09/16 14:00:39;;;;;;;;;;;20.20;64.50;;;;;;5100706;27;19920;-68
2022/09/16 14:03:07;;;;;;;;;;;20.00;71.90;;;;;;5095781;27;19916;-68
2022/09/16 14:05:51;;;;;;;;;;;19.80;65.00;;;;;;5101346;27;19916;-67
2022/09/16 14:08:41;;;;;;;;;;;19.50;71.50;;;;;;5096005;27;20004;-68
2022/09/16 14:11:16;;;;;;;;;;;19.00;66.30;;;;;;5103126;27;20029;-67
2022/09/16 14:14:07;;;;;;;;;;;19.00;74.40;;;;;;5100577;27;19916;-67
2022/09/16 14:16:34;;;;;;;;;;;19.10;71.90;;;;;;5100189;27;20012;-67
2022/09/16 14:19:00;;;;;;;;;;;18.90;73.70;;;;;;5111973;27;19915;-68
2022/09/16 14:21:26;;;;;;;;;;;18.80;81.40;;;;;;5106245;27;19945;-67
2022/09/16 14:23:51;;;;;;;;;;;18.60;78.30;;;;;;5098969;27;20267;-67
2022/09/16 14:26:18;;;;;;;;;;;18.40;76.60;;;;;;5104500;27;19923;-64
2022/09/16 14:28:44;;;;;;;;;;;18.50;70.30;;;;;;5102222;27;19931;-64
2022/09/16 14:31:20;;;;;;;;;;;18.70;78.50;;;;;;5104145;27;19923;-64
2022/09/16 14:33:48;;;;;;;;;;;18.90;72.00;;;;;;5107420;27;19963;-64
2022/09/16 14:36:18;;;;;;;;;;;19.00;69.20;;;;;;5110060;27;19916;-64